Terminal Aerodrome Forecast
Issued by NWS

Home | Current Version | Previous Version | Text Only | Print | Product List | Glossary On
Versions: 1 2 3 4 5 6 7 8 9 10 11 12 13 14 15 16
000
FTUS43 KEAX 281100
TAFSTJ
TAF
KSTJ 281120Z 2812/0112 13007KT P6SM OVC070
     FM281800 15008KT 2SM -SN OVC015
     FM282300 15005KT P6SM OVC012
     FM010800 VRB04KT 3SM -SN OVC007=

USA.gov is the U.S. government's official web portal to all federal, state and local government web resources and services.